Smith, Canada
Current Conditions -  °F | °C
As of 3:00 PM on Monday 20 Oct 2014 (Local Time) from CYZH Reporting Station
Clear Clear  
Wind Chill: 57°   Ceiling: Unl
Heat Index: 57°   Visibility: 9mi
Dew Point: 43°   Wind: 3mph
Humidity: 59%   Direction: 280°W
Pressure: 29.48"   Gusts: NA
Location:  55.17°N, 114.03°W
Report Text: CYZH 202100Z AUTO 28003KT 9SM CLR 14/06 A2948 RMK TS/LTNG TEMPO UNAVBL SLP997 DENSITY ALT 2700FT
Loading
Personal Weather Stations






























Interactive Weather Map
Tropical Storm Tracking
New forecast layout! Learn more

10-Day Weather Forecast

Advertisements
Track Severe Weather on mobile